createdAt,value
2018-05-05T00:04:07.320Z,13.40
2018-05-05T00:09:08.314Z,13.30
2018-05-05T00:14:09.350Z,13.20
2018-05-05T00:19:10.337Z,13.20
2018-05-05T00:24:11.330Z,13.20
2018-05-05T00:29:12.329Z,13.10
2018-05-05T00:34:13.337Z,13.10
2018-05-05T00:39:15.079Z,13.10
2018-05-05T00:44:16.102Z,13.00
2018-05-05T00:49:17.094Z,13.10
2018-05-05T00:54:30.459Z,13.10
2018-05-05T00:59:32.206Z,13.00
2018-05-05T01:04:33.210Z,12.90
2018-05-05T01:09:34.945Z,12.90
2018-05-05T01:14:35.957Z,12.80
2018-05-05T01:19:36.950Z,12.90
2018-05-05T01:24:37.951Z,12.80
2018-05-05T01:29:39.699Z,12.70
2018-05-05T01:34:40.703Z,12.60
2018-05-05T01:39:41.697Z,12.60
2018-05-05T01:44:42.710Z,12.50
2018-05-05T01:49:43.696Z,12.50
2018-05-05T01:54:44.687Z,12.40
2018-05-05T01:59:45.783Z,12.30
2018-05-05T02:04:46.686Z,12.10
2018-05-05T02:09:47.685Z,12.00
2018-05-05T02:14:49.427Z,11.80
2018-05-05T02:19:50.436Z,11.70
2018-05-05T02:24:51.424Z,11.70
2018-05-05T02:29:52.422Z,11.80
2018-05-05T02:34:53.407Z,11.60
2018-05-05T02:39:54.415Z,11.50
2018-05-05T02:44:55.421Z,11.40
2018-05-05T02:49:56.407Z,11.30
2018-05-05T02:54:57.419Z,11.20
2018-05-05T02:59:59.154Z,11.30
2018-05-05T03:05:00.139Z,11.30
2018-05-05T03:10:01.134Z,11.40
2018-05-05T03:15:02.137Z,11.40
2018-05-05T03:20:03.117Z,11.40
2018-05-05T03:25:04.862Z,11.20
2018-05-05T03:30:05.840Z,11.20
2018-05-05T03:35:06.830Z,11.20
2018-05-05T03:40:08.598Z,11.20
2018-05-05T03:45:10.317Z,11.30
2018-05-05T03:50:11.304Z,11.30
2018-05-05T03:55:12.286Z,11.40
2018-05-05T04:00:26.382Z,11.40
2018-05-05T04:10:56.634Z,11.40
2018-05-05T04:15:57.638Z,11.30
2018-05-05T04:20:58.621Z,11.30
2018-05-05T04:25:59.614Z,11.20
2018-05-05T04:31:00.586Z,11.20
2018-05-05T04:36:01.562Z,11.20
2018-05-05T04:41:03.570Z,11.40
2018-05-05T04:46:05.322Z,11.50
2018-05-05T04:51:06.338Z,11.40
2018-05-05T04:56:07.339Z,11.60
2018-05-05T05:01:08.317Z,11.80
2018-05-05T05:06:09.308Z,12.00
2018-05-05T05:11:10.364Z,12.10
2018-05-05T05:16:11.277Z,12.40
2018-05-05T05:21:12.293Z,12.70
2018-05-05T05:26:13.286Z,12.90
2018-05-05T05:31:14.278Z,13.00
2018-05-05T05:36:16.097Z,13.60
2018-05-05T05:41:17.102Z,13.50
2018-05-05T05:46:18.089Z,13.90
2018-05-05T05:51:19.073Z,14.00
2018-05-05T05:56:20.069Z,14.10
2018-05-05T06:01:21.074Z,14.40
2018-05-05T06:06:22.055Z,14.80
2018-05-05T06:11:23.062Z,14.60
2018-05-05T06:16:24.815Z,14.90
2018-05-05T06:21:25.837Z,14.90
2018-05-05T06:26:26.846Z,15.50
2018-05-05T06:31:28.582Z,15.70
2018-05-05T06:36:29.577Z,15.60
2018-05-05T06:41:31.329Z,16.60
2018-05-05T06:46:32.334Z,16.50
2018-05-05T06:51:33.344Z,16.40
2018-05-05T06:56:34.448Z,16.80
2018-05-05T07:01:35.447Z,17.00
2018-05-05T07:06:36.437Z,17.20
2018-05-05T07:11:38.193Z,17.70
2018-05-05T07:16:39.212Z,17.60
2018-05-05T07:21:40.226Z,18.20
2018-05-05T07:26:41.229Z,18.10
2018-05-05T07:31:42.264Z,18.30
2018-05-05T07:36:43.985Z,19.10
2018-05-05T07:41:44.977Z,19.00
2018-05-05T07:46:46.717Z,19.30
2018-05-05T07:51:47.708Z,19.20
2018-05-05T07:56:48.709Z,19.50
2018-05-05T08:01:49.714Z,19.80
2018-05-05T08:06:50.711Z,20.00
2018-05-05T08:11:51.717Z,19.90
2018-05-05T08:16:52.736Z,20.00
2018-05-05T08:21:53.709Z,20.10
2018-05-05T08:26:54.707Z,20.40
2018-05-05T08:31:56.441Z,20.80
2018-05-05T08:36:57.417Z,20.70
2018-05-05T08:41:58.405Z,20.90
2018-05-05T08:47:00.134Z,20.70
2018-05-05T08:52:01.132Z,20.70
2018-05-05T08:57:02.112Z,21.30
2018-05-05T09:02:03.114Z,21.20
2018-05-05T09:07:04.114Z,21.20
2018-05-05T09:12:05.926Z,21.00
2018-05-05T09:17:06.852Z,21.00
2018-05-05T09:22:08.629Z,21.40
2018-05-05T09:27:10.364Z,21.10
2018-05-05T09:32:11.362Z,21.00
2018-05-05T09:37:13.093Z,21.20
2018-05-05T09:42:14.088Z,21.20
2018-05-05T09:47:15.841Z,21.20
2018-05-05T09:52:16.841Z,21.10
2018-05-05T09:57:17.837Z,21.50
2018-05-05T10:02:18.849Z,21.60
2018-05-05T10:07:20.574Z,21.50
2018-05-05T10:12:21.565Z,21.50
2018-05-05T10:17:23.302Z,22.00
2018-05-05T10:22:24.284Z,22.00
2018-05-05T10:27:25.278Z,22.30
2018-05-05T10:32:26.282Z,22.30
2018-05-05T10:37:27.276Z,22.30
2018-05-05T10:42:29.027Z,22.70
2018-05-05T10:47:30.039Z,22.70
2018-05-05T10:52:31.050Z,22.70
2018-05-05T10:57:32.041Z,22.80
2018-05-05T11:02:33.029Z,22.40
2018-05-05T11:07:34.070Z,22.80
2018-05-05T11:12:35.062Z,22.70
2018-05-05T11:17:41.741Z,22.70
2018-05-05T11:22:43.356Z,22.70
2018-05-05T11:27:45.120Z,23.10
2018-05-05T11:32:46.179Z,23.00
2018-05-05T11:37:47.178Z,23.20
2018-05-05T11:42:48.173Z,23.20
2018-05-05T11:47:49.161Z,23.30
2018-05-05T11:52:50.898Z,23.00
2018-05-05T11:57:51.894Z,23.00
2018-05-05T12:02:53.626Z,23.20
2018-05-05T12:07:54.621Z,23.10
2018-05-05T12:12:56.366Z,23.20
2018-05-05T12:17:57.365Z,23.20
2018-05-05T12:22:59.120Z,23.10
2018-05-05T12:28:00.858Z,23.10
2018-05-05T12:33:01.917Z,23.00
2018-05-05T12:38:02.920Z,23.30
2018-05-05T12:43:04.659Z,23.40
2018-05-05T12:48:05.657Z,23.30
2018-05-05T12:53:07.402Z,23.70
2018-05-05T12:58:08.402Z,23.70
2018-05-05T13:03:09.410Z,23.70
2018-05-05T13:08:10.417Z,23.50
2018-05-05T13:13:12.141Z,23.90
2018-05-05T13:18:13.159Z,23.90
2018-05-05T13:23:14.150Z,24.00
2018-05-05T13:28:15.150Z,23.70
2018-05-05T13:33:16.913Z,24.20
2018-05-05T13:38:17.914Z,24.10
2018-05-05T13:43:18.913Z,24.40
2018-05-05T13:48:19.907Z,23.90
2018-05-05T13:53:21.635Z,24.40
2018-05-05T13:58:22.630Z,24.40
2018-05-05T14:03:24.383Z,24.30
2018-05-05T14:08:25.385Z,24.30
2018-05-05T14:13:26.383Z,24.20
2018-05-05T14:18:28.145Z,24.40
2018-05-05T14:23:29.157Z,24.40
2018-05-05T14:28:30.222Z,24.30
2018-05-05T14:33:31.958Z,24.40
2018-05-05T14:38:32.942Z,24.30
2018-05-05T14:43:34.669Z,24.40
2018-05-05T14:48:35.741Z,24.40
2018-05-05T14:53:36.733Z,24.40
2018-05-05T14:58:38.462Z,24.40
2018-05-05T15:03:39.447Z,24.40
2018-05-05T15:08:40.433Z,24.50
2018-05-05T15:13:42.165Z,24.40
2018-05-05T15:18:43.149Z,24.30
2018-05-05T15:23:44.126Z,24.30
2018-05-05T15:28:45.849Z,24.40
2018-05-05T15:33:46.843Z,24.30
2018-05-05T15:38:48.585Z,24.30
2018-05-05T15:43:49.585Z,24.20
2018-05-05T15:48:50.597Z,24.40
2018-05-05T15:53:51.606Z,24.40
2018-05-05T15:58:52.589Z,24.50
2018-05-05T16:03:53.576Z,24.40
2018-05-05T16:08:54.557Z,24.30
2018-05-05T16:13:56.288Z,24.20
2018-05-05T16:18:57.398Z,24.10
2018-05-05T16:23:58.328Z,24.20
2018-05-05T16:28:59.301Z,24.20
2018-05-05T16:34:00.269Z,24.20
2018-05-05T16:39:02.026Z,24.10
2018-05-05T16:44:03.014Z,24.00
2018-05-05T16:49:04.742Z,24.00
2018-05-05T16:54:05.750Z,24.00
2018-05-05T16:59:06.728Z,23.90
2018-05-05T17:04:07.726Z,23.90
2018-05-05T17:09:08.717Z,23.80
2018-05-05T17:14:09.705Z,23.80
2018-05-05T17:19:10.684Z,23.70
2018-05-05T17:24:11.679Z,23.60
2018-05-05T17:29:13.410Z,23.50
2018-05-05T17:34:14.421Z,23.50
2018-05-05T17:39:15.417Z,23.50
2018-05-05T17:44:16.410Z,23.30
2018-05-05T17:49:17.408Z,23.30
2018-05-05T17:54:18.402Z,23.30
2018-05-05T17:59:19.411Z,23.10
2018-05-05T18:04:20.426Z,23.10
2018-05-05T18:09:21.439Z,22.90
2018-05-05T18:14:22.453Z,22.80
2018-05-05T18:19:23.438Z,22.70
2018-05-05T18:24:24.444Z,22.60
2018-05-05T18:29:25.441Z,22.40
2018-05-05T18:34:27.241Z,21.80
2018-05-05T18:39:28.275Z,21.70
2018-05-05T18:44:29.207Z,21.60
2018-05-05T18:49:30.217Z,21.40
2018-05-05T18:54:31.276Z,21.30
2018-05-05T18:59:32.285Z,21.10
2018-05-05T19:04:33.298Z,21.00
2018-05-05T19:09:34.329Z,20.80
2018-05-05T19:14:36.079Z,20.50
2018-05-05T19:19:37.846Z,20.40
2018-05-05T19:24:38.830Z,20.30
2018-05-05T19:29:40.607Z,20.00
2018-05-05T19:34:42.361Z,19.90
2018-05-05T19:39:43.362Z,19.90
2018-05-05T19:44:44.367Z,19.70
2018-05-05T19:49:45.369Z,19.60
2018-05-05T19:54:46.390Z,19.30
2018-05-05T19:59:47.383Z,19.30
2018-05-05T20:04:48.406Z,19.10
2018-05-05T20:09:49.399Z,18.90
2018-05-05T20:14:50.389Z,18.80
2018-05-05T20:19:51.373Z,18.60
2018-05-05T20:24:52.374Z,18.50
2018-05-05T20:29:53.366Z,18.30
2018-05-05T20:34:54.371Z,18.30
2018-05-05T20:39:55.344Z,18.20
2018-05-05T20:44:56.333Z,18.10
2018-05-05T20:49:57.322Z,18.10
2018-05-05T20:54:58.328Z,18.00
2018-05-05T20:59:59.322Z,17.90
2018-05-05T21:05:00.321Z,17.80
2018-05-05T21:10:01.310Z,17.70
2018-05-05T21:15:02.314Z,17.60
2018-05-05T21:20:03.313Z,17.50
2018-05-05T21:25:04.307Z,17.40
2018-05-05T21:30:05.334Z,17.20
2018-05-05T21:35:06.390Z,17.20
2018-05-05T21:40:07.420Z,17.10
2018-05-05T21:45:09.169Z,17.30
2018-05-05T21:50:10.186Z,17.30
2018-05-05T21:55:11.205Z,17.40
2018-05-05T22:00:12.955Z,17.30
2018-05-05T22:05:14.742Z,17.30
2018-05-05T22:10:15.762Z,17.20
2018-05-05T22:15:16.926Z,17.10
2018-05-05T22:20:18.010Z,17.00
2018-05-05T22:25:19.019Z,17.10
2018-05-05T22:30:20.031Z,17.00
2018-05-05T22:35:21.029Z,17.00
2018-05-05T22:40:22.038Z,16.90
2018-05-05T22:45:23.058Z,16.90
2018-05-05T22:50:24.060Z,16.90
2018-05-05T22:55:25.073Z,16.90
2018-05-05T23:00:26.082Z,16.90
2018-05-05T23:05:27.097Z,16.90
2018-05-05T23:10:28.104Z,16.80
2018-05-05T23:15:29.884Z,16.50
2018-05-05T23:20:31.628Z,16.40
2018-05-05T23:25:32.633Z,16.30
2018-05-05T23:30:33.635Z,16.20
2018-05-05T23:35:34.629Z,16.20
2018-05-05T23:40:36.374Z,16.10
2018-05-05T23:45:37.496Z,16.00
2018-05-05T23:50:38.503Z,16.10
2018-05-05T23:55:39.506Z,16.10
